Time,TemperatureF,DewpointF,PressureIn,WindDirection,WindDirectionDegrees,WindSpeedMPH,WindSpeedGustMPH,Humidity,HourlyPrecipIn,Conditions,Clouds,dailyrainin,SoftwareType,DateUTC
2013-03-09 00:10:00,44.8,40.6,29.93,NW,315,2.2,-999.0,85,-99.99,,,0.00,Acu-Link.com,2013-03-09 08:10:00,
2013-03-09 00:26:00,45.1,40.6,29.93,NNE,22,1.1,-999.0,84,-99.99,,,0.00,Acu-Link.com,2013-03-09 08:26:00,
2013-03-09 00:41:00,45.3,40.8,29.94,SSW,202,5.8,-999.0,84,-99.99,,,0.00,Acu-Link.com,2013-03-09 08:41:00,
2013-03-09 00:56:00,46.0,41.1,29.95,South,180,5.3,-999.0,83,-99.99,,,0.00,Acu-Link.com,2013-03-09 08:56:00,
2013-03-09 01:11:00,46.2,41.3,29.96,West,270,5.3,-999.0,83,-99.99,,,0.00,Acu-Link.com,2013-03-09 09:11:00,
2013-03-09 01:26:00,46.6,41.4,29.97,SW,225,3.2,-999.0,82,-99.99,,,0.00,Acu-Link.com,2013-03-09 09:26:00,
2013-03-09 01:41:00,46.6,41.7,29.98,WSW,247,2.7,-999.0,83,-99.99,,,0.00,Acu-Link.com,2013-03-09 09:41:00,
2013-03-09 01:57:00,46.8,41.6,29.98,SE,135,2.7,-999.0,82,-99.99,,,0.00,Acu-Link.com,2013-03-09 09:57:00,
2013-03-09 02:12:00,46.6,41.7,29.98,SW,225,1.7,-999.0,83,-99.99,,,0.00,Acu-Link.com,2013-03-09 10:12:00,
2013-03-09 02:27:00,46.2,41.3,29.97,SSW,202,5.3,-999.0,83,-99.99,,,0.00,Acu-Link.com,2013-03-09 10:27:00,
2013-03-09 02:42:00,45.1,40.6,29.96,WSW,247,1.7,-999.0,84,-99.99,,,0.00,Acu-Link.com,2013-03-09 10:42:00,
2013-03-09 02:58:00,44.4,40.5,29.96,WSW,247,3.2,-999.0,86,-99.99,,,0.00,Acu-Link.com,2013-03-09 10:58:00,
2013-03-09 03:13:00,44.4,40.8,29.96,SSW,202,2.7,-999.0,87,-99.99,,,0.00,Acu-Link.com,2013-03-09 11:13:00,
2013-03-09 03:28:00,43.9,40.6,29.96,South,180,3.2,-999.0,88,-99.99,,,0.00,Acu-Link.com,2013-03-09 11:28:00,
2013-03-09 03:43:00,43.9,40.9,29.98,SSW,202,2.7,-999.0,89,-99.99,,,0.00,Acu-Link.com,2013-03-09 11:43:00,
2013-03-09 03:58:00,43.9,40.9,29.99,SW,225,4.2,-999.0,89,-99.99,,,0.00,Acu-Link.com,2013-03-09 11:58:00,
2013-03-09 04:14:00,44.6,41.6,29.99,West,270,3.2,-999.0,89,-99.99,,,0.00,Acu-Link.com,2013-03-09 12:14:00,
2013-03-09 04:29:00,44.6,41.6,30.01,SW,225,2.2,-999.0,89,-99.99,,,0.00,Acu-Link.com,2013-03-09 12:29:00,
2013-03-09 04:44:00,44.4,41.7,30.02,North,0,2.2,-999.0,90,-99.99,,,0.00,Acu-Link.com,2013-03-09 12:44:00,
2013-03-09 04:59:00,44.2,41.7,30.04,NE,45,2.2,-999.0,91,-99.99,,,0.00,Acu-Link.com,2013-03-09 12:59:00,
2013-03-09 05:15:00,44.6,41.9,30.05,WSW,247,2.7,-999.0,90,-99.99,,,0.00,Acu-Link.com,2013-03-09 13:15:00,
2013-03-09 05:30:00,44.4,41.7,30.05,West,270,2.2,-999.0,90,-99.99,,,0.00,Acu-Link.com,2013-03-09 13:30:00,
2013-03-09 05:45:00,44.1,41.4,30.06,South,180,0.0,-999.0,90,-99.99,,,0.00,Acu-Link.com,2013-03-09 13:45:00,
2013-03-09 06:00:00,43.7,41.0,30.07,West,270,1.7,-999.0,90,-99.99,,,0.00,Acu-Link.com,2013-03-09 14:00:00,
2013-03-09 06:15:00,42.8,40.4,30.08,WSW,247,2.2,-999.0,91,-99.99,,,0.00,Acu-Link.com,2013-03-09 14:15:00,
2013-03-09 06:31:00,42.8,40.9,30.07,SW,225,2.2,-999.0,93,-99.99,,,0.00,Acu-Link.com,2013-03-09 14:31:00,
2013-03-09 06:46:00,43.2,41.0,30.08,SSE,157,0.0,-999.0,92,-99.99,,,0.00,Acu-Link.com,2013-03-09 14:46:00,
2013-03-09 07:01:00,44.4,41.7,30.09,SW,225,2.2,-999.0,90,-99.99,,,0.00,Acu-Link.com,2013-03-09 15:01:00,
2013-03-09 07:16:00,46.4,42.1,30.09,WSW,247,2.2,-999.0,85,-99.99,,,0.00,Acu-Link.com,2013-03-09 15:16:00,
2013-03-09 07:31:00,48.4,42.2,30.10,ENE,67,1.7,-999.0,79,-99.99,,,0.00,Acu-Link.com,2013-03-09 15:31:00,
2013-03-09 07:47:00,52.0,43.3,30.10,ENE,67,2.2,-999.0,72,-99.99,,,0.00,Acu-Link.com,2013-03-09 15:47:00,
2013-03-09 08:02:00,50.5,42.2,30.09,SSW,202,1.7,-999.0,73,-99.99,,,0.00,Acu-Link.com,2013-03-09 16:02:00,
2013-03-09 08:17:00,51.3,42.6,30.10,East,90,0.0,-999.0,72,-99.99,,,0.00,Acu-Link.com,2013-03-09 16:17:00,
2013-03-09 08:32:00,52.9,43.0,30.10,ESE,112,2.2,-999.0,69,-99.99,,,0.00,Acu-Link.com,2013-03-09 16:32:00,
2013-03-09 08:47:00,53.4,43.1,30.10,North,0,3.2,-999.0,68,-99.99,,,0.00,Acu-Link.com,2013-03-09 16:47:00,
2013-03-09 09:03:00,54.5,43.4,30.11,NNE,22,2.7,-999.0,66,-99.99,,,0.00,Acu-Link.com,2013-03-09 17:03:00,
2013-03-09 09:18:00,54.9,43.8,30.13,NNE,22,1.7,-999.0,66,-99.99,,,0.00,Acu-Link.com,2013-03-09 17:18:00,
2013-03-09 09:33:00,57.7,45.2,30.14,NE,45,1.1,-999.0,63,-99.99,,,0.00,Acu-Link.com,2013-03-09 17:33:00,
2013-03-09 09:48:00,57.2,43.9,30.14,East,90,2.2,-999.0,61,-99.99,,,0.00,Acu-Link.com,2013-03-09 17:48:00,
2013-03-09 10:04:00,59.4,45.1,30.14,ESE,112,2.2,-999.0,59,-99.99,,,0.00,Acu-Link.com,2013-03-09 18:04:00,
2013-03-09 10:19:00,58.3,43.6,30.13,North,0,3.7,-999.0,58,-99.99,,,0.00,Acu-Link.com,2013-03-09 18:19:00,
2013-03-09 10:34:00,59.0,43.8,30.15,East,90,3.2,-999.0,57,-99.99,,,0.00,Acu-Link.com,2013-03-09 18:34:00,
2013-03-09 10:49:00,61.2,43.4,30.14,WNW,292,2.2,-999.0,52,-99.99,,,0.00,Acu-Link.com,2013-03-09 18:49:00,
2013-03-09 11:04:00,61.0,41.2,30.15,NNE,22,3.2,-999.0,48,-99.99,,,0.00,Acu-Link.com,2013-03-09 19:04:00,
2013-03-09 11:20:00,62.4,41.3,30.15,NW,315,3.2,-999.0,46,-99.99,,,0.00,Acu-Link.com,2013-03-09 19:20:00,
2013-03-09 11:35:00,61.5,38.8,30.16,NNW,337,5.3,-999.0,43,-99.99,,,0.00,Acu-Link.com,2013-03-09 19:35:00,
2013-03-09 11:50:00,62.8,40.0,30.16,NNW,337,5.8,-999.0,43,-99.99,,,0.00,Acu-Link.com,2013-03-09 19:50:00,
2013-03-09 12:05:00,63.0,40.2,30.16,ESE,112,1.7,-999.0,43,-99.99,,,0.00,Acu-Link.com,2013-03-09 20:05:00,
2013-03-09 12:20:00,63.3,40.4,30.16,NNE,22,5.3,-999.0,43,-99.99,,,0.00,Acu-Link.com,2013-03-09 20:20:00,
2013-03-09 12:36:00,63.7,40.8,30.17,ESE,112,2.7,-999.0,43,-99.99,,,0.00,Acu-Link.com,2013-03-09 20:36:00,
2013-03-09 12:51:00,64.6,41.6,30.15,South,180,2.7,-999.0,43,-99.99,,,0.00,Acu-Link.com,2013-03-09 20:51:00,
2013-03-09 13:06:00,64.6,41.6,30.14,ESE,112,1.7,-999.0,43,-99.99,,,0.00,Acu-Link.com,2013-03-09 21:06:00,
2013-03-09 13:21:00,66.2,40.5,30.13,SSW,202,4.7,-999.0,39,-99.99,,,0.00,Acu-Link.com,2013-03-09 21:21:00,
2013-03-09 13:36:00,65.8,40.2,30.13,East,90,3.7,-999.0,39,-99.99,,,0.00,Acu-Link.com,2013-03-09 21:36:00,
2013-03-09 13:52:00,67.1,41.3,30.12,NE,45,3.2,-999.0,39,-99.99,,,0.00,Acu-Link.com,2013-03-09 21:52:00,
2013-03-09 14:07:00,66.9,40.5,30.12,East,90,8.3,-999.0,38,-99.99,,,0.00,Acu-Link.com,2013-03-09 22:07:00,
2013-03-09 14:22:00,67.8,39.9,30.12,NNW,337,4.7,-999.0,36,-99.99,,,0.00,Acu-Link.com,2013-03-09 22:22:00,
2013-03-09 14:37:00,66.9,39.1,30.11,East,90,3.7,-999.0,36,-99.99,,,0.00,Acu-Link.com,2013-03-09 22:37:00,
2013-03-09 14:53:00,67.1,39.2,30.12,SE,135,2.7,-999.0,36,-99.99,,,0.00,Acu-Link.com,2013-03-09 22:53:00,
2013-03-09 15:08:00,67.8,41.3,30.11,North,0,5.3,-999.0,38,-99.99,,,0.00,Acu-Link.com,2013-03-09 23:08:00,
2013-03-09 15:23:00,66.7,39.6,30.11,WNW,292,2.2,-999.0,37,-99.99,,,0.00,Acu-Link.com,2013-03-09 23:23:00,
2013-03-09 15:38:00,66.9,42.4,30.11,ENE,67,1.7,-999.0,41,-99.99,,,0.00,Acu-Link.com,2013-03-09 23:38:00,
2013-03-09 15:53:00,67.1,42.6,30.10,East,90,2.7,-999.0,41,-99.99,,,0.00,Acu-Link.com,2013-03-09 23:53:00,
2013-03-09 16:09:00,66.2,41.8,30.11,WSW,247,2.2,-999.0,41,-99.99,,,0.00,Acu-Link.com,2013-03-10 00:09:00,
2013-03-09 16:24:00,65.1,43.8,30.11,WNW,292,5.8,-999.0,46,-99.99,,,0.00,Acu-Link.com,2013-03-10 00:24:00,
2013-03-09 16:39:00,64.6,43.3,30.11,SE,135,2.7,-999.0,46,-99.99,,,0.00,Acu-Link.com,2013-03-10 00:39:00,
2013-03-09 16:54:00,64.0,41.1,30.12,East,90,2.7,-999.0,43,-99.99,,,0.00,Acu-Link.com,2013-03-10 00:54:00,
2013-03-09 17:10:00,62.6,40.4,30.12,East,90,0.0,-999.0,44,-99.99,,,0.00,Acu-Link.com,2013-03-10 01:10:00,
2013-03-09 17:25:00,62.8,40.6,30.11,SSW,202,1.7,-999.0,44,-99.99,,,0.00,Acu-Link.com,2013-03-10 01:25:00,
2013-03-09 17:40:00,60.4,40.1,30.11,SW,225,4.2,-999.0,47,-99.99,,,0.00,Acu-Link.com,2013-03-10 01:40:00,
2013-03-09 17:55:00,58.1,41.1,30.11,SSW,202,3.7,-999.0,53,-99.99,,,0.00,Acu-Link.com,2013-03-10 01:55:00,
2013-03-09 18:11:00,56.7,41.6,30.12,South,180,2.7,-999.0,57,-99.99,,,0.00,Acu-Link.com,2013-03-10 02:11:00,
2013-03-09 18:26:00,55.4,41.3,30.12,SW,225,2.7,-999.0,59,-99.99,,,0.00,Acu-Link.com,2013-03-10 02:26:00,
2013-03-09 18:41:00,54.3,41.1,30.13,WSW,247,2.7,-999.0,61,-99.99,,,0.00,Acu-Link.com,2013-03-10 02:41:00,
2013-03-09 18:56:00,54.1,42.2,30.13,West,270,2.2,-999.0,64,-99.99,,,0.00,Acu-Link.com,2013-03-10 02:56:00,
2013-03-09 19:11:00,53.8,41.9,30.13,West,270,2.2,-999.0,64,-99.99,,,0.00,Acu-Link.com,2013-03-10 03:11:00,
2013-03-09 19:27:00,52.3,42.4,30.12,WNW,292,3.2,-999.0,69,-99.99,,,0.00,Acu-Link.com,2013-03-10 03:27:00,
2013-03-09 19:42:00,52.0,41.4,30.13,WSW,247,3.7,-999.0,67,-99.99,,,0.00,Acu-Link.com,2013-03-10 03:42:00,
2013-03-09 19:57:00,51.4,40.8,30.13,SW,225,4.2,-999.0,67,-99.99,,,0.00,Acu-Link.com,2013-03-10 03:57:00,
2013-03-09 20:12:00,51.3,41.1,30.14,SSW,202,2.7,-999.0,68,-99.99,,,0.00,Acu-Link.com,2013-03-10 04:12:00,
2013-03-09 20:27:00,51.3,39.5,30.13,West,270,2.2,-999.0,64,-99.99,,,0.00,Acu-Link.com,2013-03-10 04:27:00,
2013-03-09 20:43:00,52.0,39.0,30.14,SW,225,1.1,-999.0,61,-99.99,,,0.00,Acu-Link.com,2013-03-10 04:43:00,
2013-03-09 20:58:00,50.9,38.8,30.15,WSW,247,0.0,-999.0,63,-99.99,,,0.00,Acu-Link.com,2013-03-10 04:58:00,
2013-03-09 21:13:00,49.6,38.3,30.17,SW,225,0.0,-999.0,65,-99.99,,,0.00,Acu-Link.com,2013-03-10 05:13:00,
2013-03-09 21:28:00,49.6,38.7,30.17,SSE,157,0.0,-999.0,66,-99.99,,,0.00,Acu-Link.com,2013-03-10 05:28:00,
2013-03-09 21:43:00,48.4,38.7,30.16,SSW,202,0.0,-999.0,69,-99.99,,,0.00,Acu-Link.com,2013-03-10 05:43:00,
2013-03-09 21:59:00,48.2,38.5,30.16,WSW,247,0.0,-999.0,69,-99.99,,,0.00,Acu-Link.com,2013-03-10 05:59:00,
2013-03-09 22:14:00,48.0,38.7,30.17,SW,225,0.0,-999.0,70,-99.99,,,0.00,Acu-Link.com,2013-03-10 06:14:00,
2013-03-09 22:29:00,48.4,39.1,30.18,WSW,247,0.0,-999.0,70,-99.99,,,0.00,Acu-Link.com,2013-03-10 06:29:00,
2013-03-09 22:45:00,48.4,39.1,30.17,WSW,247,0.0,-999.0,70,-99.99,,,0.00,Acu-Link.com,2013-03-10 06:45:00,
2013-03-09 23:00:00,48.4,39.1,30.17,WSW,247,0.0,-999.0,70,-99.99,,,0.00,Acu-Link.com,2013-03-10 07:00:00,
2013-03-09 23:15:00,48.7,39.4,30.16,SW,225,2.2,-999.0,70,-99.99,,,0.00,Acu-Link.com,2013-03-10 07:15:00,
2013-03-09 23:30:00,48.9,39.6,30.17,SW,225,1.1,-999.0,70,-99.99,,,0.00,Acu-Link.com,2013-03-10 07:30:00,
2013-03-09 23:45:00,48.0,39.1,30.16,WSW,247,0.0,-999.0,71,-99.99,,,0.00,Acu-Link.com,2013-03-10 07:45:00,